sensor_id;sensor_type;location;lat;lon;timestamp;P1;durP1;ratioP1;P2;durP2;ratioP2
50739;SDS011;36704;52.524;17.580;2023-01-25T00:01:30;18.15;;;10.38;;
50739;SDS011;36704;52.524;17.580;2023-01-25T00:04:18;21.20;;;10.75;;
50739;SDS011;36704;52.524;17.580;2023-01-25T00:07:07;18.20;;;10.50;;
50739;SDS011;36704;52.524;17.580;2023-01-25T00:09:54;20.88;;;10.48;;
50739;SDS011;36704;52.524;17.580;2023-01-25T00:12:43;22.25;;;10.30;;
50739;SDS011;36704;52.524;17.580;2023-01-25T00:15:30;17.90;;;9.20;;
50739;SDS011;36704;52.524;17.580;2023-01-25T00:18:17;17.00;;;9.10;;
50739;SDS011;36704;52.524;17.580;2023-01-25T00:21:13;17.77;;;8.85;;
50739;SDS011;36704;52.524;17.580;2023-01-25T00:24:04;19.52;;;10.35;;
50739;SDS011;36704;52.524;17.580;2023-01-25T00:26:52;21.42;;;10.13;;
50739;SDS011;36704;52.524;17.580;2023-01-25T00:29:38;17.40;;;9.82;;
50739;SDS011;36704;52.524;17.580;2023-01-25T00:32:35;18.00;;;10.13;;
50739;SDS011;36704;52.524;17.580;2023-01-25T00:35:30;16.33;;;10.18;;
50739;SDS011;36704;52.524;17.580;2023-01-25T00:38:26;18.98;;;10.05;;
50739;SDS011;36704;52.524;17.580;2023-01-25T00:41:14;18.35;;;10.63;;
50739;SDS011;36704;52.524;17.580;2023-01-25T00:44:01;17.58;;;8.57;;
50739;SDS011;36704;52.524;17.580;2023-01-25T00:46:47;18.60;;;10.15;;
50739;SDS011;36704;52.524;17.580;2023-01-25T00:49:34;16.15;;;8.70;;
50739;SDS011;36704;52.524;17.580;2023-01-25T00:52:20;14.23;;;7.82;;
50739;SDS011;36704;52.524;17.580;2023-01-25T00:55:10;14.18;;;7.75;;
50739;SDS011;36704;52.524;17.580;2023-01-25T00:57:56;16.08;;;7.85;;
50739;SDS011;36704;52.524;17.580;2023-01-25T01:00:43;19.67;;;9.13;;
50739;SDS011;36704;52.524;17.580;2023-01-25T01:03:29;18.92;;;9.65;;
50739;SDS011;36704;52.524;17.580;2023-01-25T01:06:16;16.65;;;9.82;;
50739;SDS011;36704;52.524;17.580;2023-01-25T01:09:04;15.32;;;8.35;;
50739;SDS011;36704;52.524;17.580;2023-01-25T01:11:52;17.17;;;9.32;;
50739;SDS011;36704;52.524;17.580;2023-01-25T01:14:38;14.90;;;6.93;;
50739;SDS011;36704;52.524;17.580;2023-01-25T01:17:25;9.13;;;5.93;;
50739;SDS011;36704;52.524;17.580;2023-01-25T01:20:11;9.88;;;6.30;;
50739;SDS011;36704;52.524;17.580;2023-01-25T01:23:02;13.25;;;6.95;;
50739;SDS011;36704;52.524;17.580;2023-01-25T01:25:48;13.10;;;7.40;;
50739;SDS011;36704;52.524;17.580;2023-01-25T01:28:36;15.35;;;8.10;;
50739;SDS011;36704;52.524;17.580;2023-01-25T01:31:24;17.45;;;9.20;;
50739;SDS011;36704;52.524;17.580;2023-01-25T01:34:29;15.73;;;8.63;;
50739;SDS011;36704;52.524;17.580;2023-01-25T01:37:16;16.42;;;9.02;;
50739;SDS011;36704;52.524;17.580;2023-01-25T01:40:02;15.63;;;9.23;;
50739;SDS011;36704;52.524;17.580;2023-01-25T01:42:59;14.82;;;8.90;;
50739;SDS011;36704;52.524;17.580;2023-01-25T01:45:51;13.38;;;7.78;;
50739;SDS011;36704;52.524;17.580;2023-01-25T01:48:51;14.52;;;8.32;;
50739;SDS011;36704;52.524;17.580;2023-01-25T01:51:46;14.30;;;8.68;;
50739;SDS011;36704;52.524;17.580;2023-01-25T01:55:00;13.88;;;8.40;;
50739;SDS011;36704;52.524;17.580;2023-01-25T01:57:56;15.75;;;8.63;;
50739;SDS011;36704;52.524;17.580;2023-01-25T02:00:44;15.82;;;9.30;;
50739;SDS011;36704;52.524;17.580;2023-01-25T02:03:31;15.52;;;8.10;;
50739;SDS011;36704;52.524;17.580;2023-01-25T02:06:26;13.77;;;8.88;;
50739;SDS011;36704;52.524;17.580;2023-01-25T02:09:17;18.00;;;9.23;;
50739;SDS011;36704;52.524;17.580;2023-01-25T02:12:05;15.85;;;9.10;;
50739;SDS011;36704;52.524;17.580;2023-01-25T02:14:55;15.77;;;8.77;;
50739;SDS011;36704;52.524;17.580;2023-01-25T02:17:42;14.82;;;8.48;;
50739;SDS011;36704;52.524;17.580;2023-01-25T02:20:41;14.95;;;8.25;;
50739;SDS011;36704;52.524;17.580;2023-01-25T02:23:41;16.92;;;9.13;;
50739;SDS011;36704;52.524;17.580;2023-01-25T02:26:33;14.40;;;8.32;;
50739;SDS011;36704;52.524;17.580;2023-01-25T02:29:21;16.55;;;9.45;;
50739;SDS011;36704;52.524;17.580;2023-01-25T02:32:10;17.05;;;9.48;;
50739;SDS011;36704;52.524;17.580;2023-01-25T02:34:58;16.27;;;9.48;;
50739;SDS011;36704;52.524;17.580;2023-01-25T02:37:45;15.25;;;8.70;;
50739;SDS011;36704;52.524;17.580;2023-01-25T02:40:44;18.30;;;8.90;;
50739;SDS011;36704;52.524;17.580;2023-01-25T02:43:36;16.60;;;9.70;;
50739;SDS011;36704;52.524;17.580;2023-01-25T02:46:24;18.33;;;9.73;;
50739;SDS011;36704;52.524;17.580;2023-01-25T02:49:17;17.05;;;10.13;;
50739;SDS011;36704;52.524;17.580;2023-01-25T02:52:05;18.27;;;9.45;;
50739;SDS011;36704;52.524;17.580;2023-01-25T02:54:53;16.15;;;8.88;;
50739;SDS011;36704;52.524;17.580;2023-01-25T02:57:39;15.32;;;9.15;;
50739;SDS011;36704;52.524;17.580;2023-01-25T03:00:27;18.77;;;9.68;;
50739;SDS011;36704;52.524;17.580;2023-01-25T03:03:15;14.63;;;8.45;;
50739;SDS011;36704;52.524;17.580;2023-01-25T03:06:02;11.52;;;7.60;;
50739;SDS011;36704;52.524;17.580;2023-01-25T03:08:50;12.10;;;7.28;;
50739;SDS011;36704;52.524;17.580;2023-01-25T03:11:37;14.05;;;6.78;;
50739;SDS011;36704;52.524;17.580;2023-01-25T03:14:23;12.05;;;6.55;;
50739;SDS011;36704;52.524;17.580;2023-01-25T03:17:10;9.80;;;5.65;;
50739;SDS011;36704;52.524;17.580;2023-01-25T03:19:57;12.70;;;6.50;;
50739;SDS011;36704;52.524;17.580;2023-01-25T03:22:44;10.77;;;6.30;;
50739;SDS011;36704;52.524;17.580;2023-01-25T03:25:31;12.23;;;6.90;;
50739;SDS011;36704;52.524;17.580;2023-01-25T03:28:31;11.57;;;7.00;;
50739;SDS011;36704;52.524;17.580;2023-01-25T03:31:17;14.25;;;8.20;;
50739;SDS011;36704;52.524;17.580;2023-01-25T03:34:04;13.05;;;7.88;;
50739;SDS011;36704;52.524;17.580;2023-01-25T03:36:55;14.68;;;8.52;;
50739;SDS011;36704;52.524;17.580;2023-01-25T03:39:42;15.77;;;8.85;;
50739;SDS011;36704;52.524;17.580;2023-01-25T03:42:29;15.20;;;8.88;;
50739;SDS011;36704;52.524;17.580;2023-01-25T03:45:22;15.77;;;8.45;;
50739;SDS011;36704;52.524;17.580;2023-01-25T03:48:08;15.50;;;8.75;;
50739;SDS011;36704;52.524;17.580;2023-01-25T03:50:59;15.20;;;8.93;;
50739;SDS011;36704;52.524;17.580;2023-01-25T03:53:49;13.43;;;8.48;;
50739;SDS011;36704;52.524;17.580;2023-01-25T03:56:36;15.18;;;9.05;;
50739;SDS011;36704;52.524;17.580;2023-01-25T03:59:35;17.25;;;10.18;;
50739;SDS011;36704;52.524;17.580;2023-01-25T04:02:25;18.08;;;8.82;;
50739;SDS011;36704;52.524;17.580;2023-01-25T04:08:00;16.67;;;8.55;;
50739;SDS011;36704;52.524;17.580;2023-01-25T04:10:54;18.50;;;9.20;;
50739;SDS011;36704;52.524;17.580;2023-01-25T04:13:43;16.92;;;9.13;;
50739;SDS011;36704;52.524;17.580;2023-01-25T04:16:31;17.10;;;9.20;;
50739;SDS011;36704;52.524;17.580;2023-01-25T04:19:35;14.73;;;8.35;;
50739;SDS011;36704;52.524;17.580;2023-01-25T04:22:23;16.30;;;8.13;;
50739;SDS011;36704;52.524;17.580;2023-01-25T04:25:12;12.60;;;7.95;;
50739;SDS011;36704;52.524;17.580;2023-01-25T04:28:05;14.50;;;7.78;;
50739;SDS011;36704;52.524;17.580;2023-01-25T04:30:53;15.07;;;8.52;;
50739;SDS011;36704;52.524;17.580;2023-01-25T04:33:42;15.73;;;8.52;;
50739;SDS011;36704;52.524;17.580;2023-01-25T04:36:31;15.95;;;8.40;;
50739;SDS011;36704;52.524;17.580;2023-01-25T04:39:17;13.32;;;8.25;;
50739;SDS011;36704;52.524;17.580;2023-01-25T04:42:05;17.50;;;8.80;;
50739;SDS011;36704;52.524;17.580;2023-01-25T04:44:52;15.60;;;8.60;;
50739;SDS011;36704;52.524;17.580;2023-01-25T04:47:38;18.48;;;8.52;;
50739;SDS011;36704;52.524;17.580;2023-01-25T04:50:26;16.88;;;8.85;;
50739;SDS011;36704;52.524;17.580;2023-01-25T04:53:13;16.27;;;8.73;;
50739;SDS011;36704;52.524;17.580;2023-01-25T04:56:01;17.85;;;8.70;;
50739;SDS011;36704;52.524;17.580;2023-01-25T04:58:52;17.65;;;9.60;;
50739;SDS011;36704;52.524;17.580;2023-01-25T05:01:40;16.70;;;9.57;;
50739;SDS011;36704;52.524;17.580;2023-01-25T05:04:27;15.93;;;8.93;;
50739;SDS011;36704;52.524;17.580;2023-01-25T05:07:13;17.52;;;10.05;;
50739;SDS011;36704;52.524;17.580;2023-01-25T05:10:01;16.45;;;8.77;;
50739;SDS011;36704;52.524;17.580;2023-01-25T05:12:48;15.75;;;9.07;;
50739;SDS011;36704;52.524;17.580;2023-01-25T05:15:35;14.27;;;7.50;;
50739;SDS011;36704;52.524;17.580;2023-01-25T05:18:21;12.75;;;7.30;;
50739;SDS011;36704;52.524;17.580;2023-01-25T05:21:08;14.80;;;8.05;;
50739;SDS011;36704;52.524;17.580;2023-01-25T05:24:15;13.05;;;7.53;;
50739;SDS011;36704;52.524;17.580;2023-01-25T05:27:02;13.75;;;7.38;;
50739;SDS011;36704;52.524;17.580;2023-01-25T05:30:09;14.25;;;7.97;;
50739;SDS011;36704;52.524;17.580;2023-01-25T05:33:08;16.02;;;9.05;;
50739;SDS011;36704;52.524;17.580;2023-01-25T05:35:54;15.18;;;8.23;;
50739;SDS011;36704;52.524;17.580;2023-01-25T05:38:42;17.23;;;8.50;;
50739;SDS011;36704;52.524;17.580;2023-01-25T05:41:30;16.33;;;8.93;;
50739;SDS011;36704;52.524;17.580;2023-01-25T05:44:16;17.50;;;10.82;;
50739;SDS011;36704;52.524;17.580;2023-01-25T05:47:06;18.73;;;10.40;;
50739;SDS011;36704;52.524;17.580;2023-01-25T05:49:54;19.25;;;10.60;;
50739;SDS011;36704;52.524;17.580;2023-01-25T05:52:51;22.13;;;11.30;;
50739;SDS011;36704;52.524;17.580;2023-01-25T05:55:40;25.65;;;11.63;;
50739;SDS011;36704;52.524;17.580;2023-01-25T05:58:32;27.95;;;12.18;;
50739;SDS011;36704;52.524;17.580;2023-01-25T06:01:19;23.88;;;13.35;;
50739;SDS011;36704;52.524;17.580;2023-01-25T06:04:11;26.48;;;14.15;;
50739;SDS011;36704;52.524;17.580;2023-01-25T06:07:01;22.42;;;11.88;;
50739;SDS011;36704;52.524;17.580;2023-01-25T06:09:49;36.30;;;17.10;;
50739;SDS011;36704;52.524;17.580;2023-01-25T06:12:36;25.10;;;13.82;;
50739;SDS011;36704;52.524;17.580;2023-01-25T06:15:25;30.00;;;14.88;;
50739;SDS011;36704;52.524;17.580;2023-01-25T06:18:16;28.13;;;14.15;;
50739;SDS011;36704;52.524;17.580;2023-01-25T06:21:23;32.97;;;17.13;;
50739;SDS011;36704;52.524;17.580;2023-01-25T06:24:10;35.03;;;17.83;;
50739;SDS011;36704;52.524;17.580;2023-01-25T06:26:57;38.30;;;18.67;;
50739;SDS011;36704;52.524;17.580;2023-01-25T06:29:44;32.10;;;16.80;;
50739;SDS011;36704;52.524;17.580;2023-01-25T06:32:31;22.10;;;11.68;;
50739;SDS011;36704;52.524;17.580;2023-01-25T06:35:19;28.30;;;14.63;;
50739;SDS011;36704;52.524;17.580;2023-01-25T06:38:06;32.97;;;15.65;;
50739;SDS011;36704;52.524;17.580;2023-01-25T06:40:57;31.05;;;15.68;;
50739;SDS011;36704;52.524;17.580;2023-01-25T06:43:45;28.08;;;15.40;;
50739;SDS011;36704;52.524;17.580;2023-01-25T06:46:33;28.08;;;14.20;;
50739;SDS011;36704;52.524;17.580;2023-01-25T06:49:20;23.30;;;12.60;;
50739;SDS011;36704;52.524;17.580;2023-01-25T06:52:06;27.00;;;13.68;;
50739;SDS011;36704;52.524;17.580;2023-01-25T06:54:53;30.15;;;16.20;;
50739;SDS011;36704;52.524;17.580;2023-01-25T06:57:45;31.50;;;16.05;;
50739;SDS011;36704;52.524;17.580;2023-01-25T07:00:36;29.67;;;15.32;;
50739;SDS011;36704;52.524;17.580;2023-01-25T07:03:25;28.88;;;14.25;;
50739;SDS011;36704;52.524;17.580;2023-01-25T07:06:11;29.48;;;14.93;;
50739;SDS011;36704;52.524;17.580;2023-01-25T07:09:03;29.45;;;14.32;;
50739;SDS011;36704;52.524;17.580;2023-01-25T07:11:50;33.03;;;16.23;;
50739;SDS011;36704;52.524;17.580;2023-01-25T07:14:40;32.95;;;15.68;;
50739;SDS011;36704;52.524;17.580;2023-01-25T07:17:27;29.30;;;15.30;;
50739;SDS011;36704;52.524;17.580;2023-01-25T07:20:13;27.75;;;16.02;;
50739;SDS011;36704;52.524;17.580;2023-01-25T07:23:00;34.13;;;16.30;;
50739;SDS011;36704;52.524;17.580;2023-01-25T07:25:48;33.20;;;15.93;;
50739;SDS011;36704;52.524;17.580;2023-01-25T07:28:35;28.17;;;15.35;;
50739;SDS011;36704;52.524;17.580;2023-01-25T07:31:27;42.38;;;18.63;;
50739;SDS011;36704;52.524;17.580;2023-01-25T07:34:13;35.28;;;16.92;;
50739;SDS011;36704;52.524;17.580;2023-01-25T07:37:00;32.47;;;15.15;;
50739;SDS011;36704;52.524;17.580;2023-01-25T07:39:47;24.02;;;13.55;;
50739;SDS011;36704;52.524;17.580;2023-01-25T07:42:35;26.83;;;13.82;;
50739;SDS011;36704;52.524;17.580;2023-01-25T07:45:29;19.08;;;10.18;;
50739;SDS011;36704;52.524;17.580;2023-01-25T07:48:17;29.30;;;15.68;;
50739;SDS011;36704;52.524;17.580;2023-01-25T07:51:05;82.60;;;49.60;;
50739;SDS011;36704;52.524;17.580;2023-01-25T07:54:12;62.08;;;34.60;;
50739;SDS011;36704;52.524;17.580;2023-01-25T07:56:58;51.72;;;22.50;;
50739;SDS011;36704;52.524;17.580;2023-01-25T07:59:45;49.28;;;21.10;;
50739;SDS011;36704;52.524;17.580;2023-01-25T08:02:31;262.98;;;99.03;;
50739;SDS011;36704;52.524;17.580;2023-01-25T08:05:18;169.40;;;56.13;;
50739;SDS011;36704;52.524;17.580;2023-01-25T08:08:05;56.55;;;27.08;;
50739;SDS011;36704;52.524;17.580;2023-01-25T08:10:52;96.28;;;42.20;;
50739;SDS011;36704;52.524;17.580;2023-01-25T08:13:39;81.97;;;29.58;;
50739;SDS011;36704;52.524;17.580;2023-01-25T08:16:26;72.95;;;29.02;;
50739;SDS011;36704;52.524;17.580;2023-01-25T08:19:13;157.05;;;53.65;;
50739;SDS011;36704;52.524;17.580;2023-01-25T08:21:59;252.68;;;68.80;;
50739;SDS011;36704;52.524;17.580;2023-01-25T08:24:46;148.95;;;41.65;;
50739;SDS011;36704;52.524;17.580;2023-01-25T08:27:33;61.13;;;20.23;;
50739;SDS011;36704;52.524;17.580;2023-01-25T08:30:19;269.33;;;79.20;;
50739;SDS011;36704;52.524;17.580;2023-01-25T08:33:06;85.32;;;26.80;;
50739;SDS011;36704;52.524;17.580;2023-01-25T08:35:53;73.55;;;23.00;;
50739;SDS011;36704;52.524;17.580;2023-01-25T08:38:41;284.67;;;67.30;;
50739;SDS011;36704;52.524;17.580;2023-01-25T08:41:28;99.40;;;25.60;;
50739;SDS011;36704;52.524;17.580;2023-01-25T08:44:18;33.58;;;13.00;;
50739;SDS011;36704;52.524;17.580;2023-01-25T08:47:10;36.92;;;14.65;;
50739;SDS011;36704;52.524;17.580;2023-01-25T08:49:59;82.88;;;25.08;;
50739;SDS011;36704;52.524;17.580;2023-01-25T08:52:45;82.63;;;22.80;;
50739;SDS011;36704;52.524;17.580;2023-01-25T08:55:34;108.50;;;28.05;;
50739;SDS011;36704;52.524;17.580;2023-01-25T08:58:21;40.13;;;16.40;;
50739;SDS011;36704;52.524;17.580;2023-01-25T09:01:11;96.63;;;31.77;;
50739;SDS011;36704;52.524;17.580;2023-01-25T09:04:00;34.10;;;16.08;;
50739;SDS011;36704;52.524;17.580;2023-01-25T09:06:47;25.60;;;11.32;;
50739;SDS011;36704;52.524;17.580;2023-01-25T09:09:34;36.72;;;14.07;;
50739;SDS011;36704;52.524;17.580;2023-01-25T09:12:23;99.57;;;25.73;;
50739;SDS011;36704;52.524;17.580;2023-01-25T09:15:09;75.63;;;19.60;;
50739;SDS011;36704;52.524;17.580;2023-01-25T09:17:56;45.25;;;18.15;;
50739;SDS011;36704;52.524;17.580;2023-01-25T09:20:43;28.30;;;13.57;;
50739;SDS011;36704;52.524;17.580;2023-01-25T09:23:29;54.05;;;20.52;;
50739;SDS011;36704;52.524;17.580;2023-01-25T09:26:17;42.13;;;16.60;;
50739;SDS011;36704;52.524;17.580;2023-01-25T09:29:05;31.58;;;13.80;;
50739;SDS011;36704;52.524;17.580;2023-01-25T09:31:53;23.50;;;11.70;;
50739;SDS011;36704;52.524;17.580;2023-01-25T09:34:49;29.83;;;12.55;;
50739;SDS011;36704;52.524;17.580;2023-01-25T09:37:35;28.02;;;12.43;;
50739;SDS011;36704;52.524;17.580;2023-01-25T09:40:22;352.17;;;79.00;;
50739;SDS011;36704;52.524;17.580;2023-01-25T09:43:27;113.20;;;32.72;;
50739;SDS011;36704;52.524;17.580;2023-01-25T09:46:24;42.67;;;16.67;;
50739;SDS011;36704;52.524;17.580;2023-01-25T09:53:09;46.63;;;17.20;;
50739;SDS011;36704;52.524;17.580;2023-01-25T09:55:56;34.15;;;15.23;;
50739;SDS011;36704;52.524;17.580;2023-01-25T09:58:45;43.90;;;16.35;;
50739;SDS011;36704;52.524;17.580;2023-01-25T10:01:36;57.10;;;24.88;;
50739;SDS011;36704;52.524;17.580;2023-01-25T10:04:34;46.08;;;18.80;;
50739;SDS011;36704;52.524;17.580;2023-01-25T10:07:26;21.00;;;11.90;;
50739;SDS011;36704;52.524;17.580;2023-01-25T10:10:17;27.20;;;13.82;;
50739;SDS011;36704;52.524;17.580;2023-01-25T10:13:14;34.70;;;14.07;;
50739;SDS011;36704;52.524;17.580;2023-01-25T10:16:04;28.33;;;13.23;;
50739;SDS011;36704;52.524;17.580;2023-01-25T10:19:14;49.53;;;20.27;;
50739;SDS011;36704;52.524;17.580;2023-01-25T10:31:18;22.23;;;12.30;;
50739;SDS011;36704;52.524;17.580;2023-01-25T10:34:14;21.92;;;11.13;;
50739;SDS011;36704;52.524;17.580;2023-01-25T10:40:03;20.50;;;10.85;;
50739;SDS011;36704;52.524;17.580;2023-01-25T10:43:02;28.95;;;13.13;;
50739;SDS011;36704;52.524;17.580;2023-01-25T10:45:53;18.77;;;10.27;;
50739;SDS011;36704;52.524;17.580;2023-01-25T10:48:42;23.70;;;12.57;;
50739;SDS011;36704;52.524;17.580;2023-01-25T10:51:30;30.05;;;13.65;;
50739;SDS011;36704;52.524;17.580;2023-01-25T10:54:21;23.90;;;12.30;;
50739;SDS011;36704;52.524;17.580;2023-01-25T10:57:13;33.95;;;15.73;;
50739;SDS011;36704;52.524;17.580;2023-01-25T11:00:07;23.45;;;11.90;;
50739;SDS011;36704;52.524;17.580;2023-01-25T11:03:21;24.67;;;11.95;;
50739;SDS011;36704;52.524;17.580;2023-01-25T11:06:08;27.50;;;12.27;;
50739;SDS011;36704;52.524;17.580;2023-01-25T11:08:55;19.08;;;10.10;;
50739;SDS011;36704;52.524;17.580;2023-01-25T11:11:42;34.25;;;15.70;;
50739;SDS011;36704;52.524;17.580;2023-01-25T11:14:29;26.17;;;13.73;;
50739;SDS011;36704;52.524;17.580;2023-01-25T11:17:22;25.15;;;13.35;;
50739;SDS011;36704;52.524;17.580;2023-01-25T11:20:18;27.35;;;13.77;;
50739;SDS011;36704;52.524;17.580;2023-01-25T11:23:18;30.05;;;14.95;;
50739;SDS011;36704;52.524;17.580;2023-01-25T11:26:10;27.73;;;14.07;;
50739;SDS011;36704;52.524;17.580;2023-01-25T11:29:26;42.20;;;16.95;;
50739;SDS011;36704;52.524;17.580;2023-01-25T11:32:15;28.85;;;13.05;;
50739;SDS011;36704;52.524;17.580;2023-01-25T11:35:15;34.70;;;14.20;;
50739;SDS011;36704;52.524;17.580;2023-01-25T11:38:13;35.90;;;15.45;;
50739;SDS011;36704;52.524;17.580;2023-01-25T12:24:06;26.20;;;12.68;;
50739;SDS011;36704;52.524;17.580;2023-01-25T12:33:19;23.90;;;11.48;;
50739;SDS011;36704;52.524;17.580;2023-01-25T12:36:12;23.83;;;13.25;;
50739;SDS011;36704;52.524;17.580;2023-01-25T12:42:24;32.55;;;15.77;;
50739;SDS011;36704;52.524;17.580;2023-01-25T12:45:24;28.33;;;14.10;;
50739;SDS011;36704;52.524;17.580;2023-01-25T12:48:22;23.48;;;11.38;;
50739;SDS011;36704;52.524;17.580;2023-01-25T12:51:14;27.05;;;12.48;;
50739;SDS011;36704;52.524;17.580;2023-01-25T12:54:09;28.08;;;13.13;;
50739;SDS011;36704;52.524;17.580;2023-01-25T12:57:28;24.98;;;12.07;;
50739;SDS011;36704;52.524;17.580;2023-01-25T13:09:50;45.42;;;20.73;;
50739;SDS011;36704;52.524;17.580;2023-01-25T13:12:57;30.63;;;15.90;;
50739;SDS011;36704;52.524;17.580;2023-01-25T13:15:51;31.77;;;15.90;;
50739;SDS011;36704;52.524;17.580;2023-01-25T13:18:39;32.08;;;15.40;;
50739;SDS011;36704;52.524;17.580;2023-01-25T13:21:37;44.67;;;20.05;;
50739;SDS011;36704;52.524;17.580;2023-01-25T13:24:31;28.10;;;14.80;;
50739;SDS011;36704;52.524;17.580;2023-01-25T13:27:23;28.65;;;14.23;;
50739;SDS011;36704;52.524;17.580;2023-01-25T13:30:24;40.67;;;20.92;;
50739;SDS011;36704;52.524;17.580;2023-01-25T13:33:35;30.30;;;16.17;;
50739;SDS011;36704;52.524;17.580;2023-01-25T13:36:42;42.10;;;22.38;;
50739;SDS011;36704;52.524;17.580;2023-01-25T13:45:19;41.15;;;24.55;;
50739;SDS011;36704;52.524;17.580;2023-01-25T13:51:00;44.13;;;21.80;;
50739;SDS011;36704;52.524;17.580;2023-01-25T13:53:55;33.88;;;17.70;;
50739;SDS011;36704;52.524;17.580;2023-01-25T13:57:08;31.53;;;15.97;;
50739;SDS011;36704;52.524;17.580;2023-01-25T14:00:04;25.13;;;13.48;;
50739;SDS011;36704;52.524;17.580;2023-01-25T14:02:59;29.48;;;14.55;;
50739;SDS011;36704;52.524;17.580;2023-01-25T14:05:54;28.90;;;15.60;;
50739;SDS011;36704;52.524;17.580;2023-01-25T14:08:43;38.75;;;16.85;;
50739;SDS011;36704;52.524;17.580;2023-01-25T14:11:30;40.17;;;18.55;;
50739;SDS011;36704;52.524;17.580;2023-01-25T14:19:55;35.85;;;17.67;;
50739;SDS011;36704;52.524;17.580;2023-01-25T14:22:41;43.60;;;19.15;;
50739;SDS011;36704;52.524;17.580;2023-01-25T14:25:32;54.25;;;24.25;;
50739;SDS011;36704;52.524;17.580;2023-01-25T14:28:19;54.70;;;24.38;;
50739;SDS011;36704;52.524;17.580;2023-01-25T14:31:12;103.03;;;35.90;;
50739;SDS011;36704;52.524;17.580;2023-01-25T14:34:13;122.63;;;39.03;;
50739;SDS011;36704;52.524;17.580;2023-01-25T14:37:18;84.70;;;31.42;;
50739;SDS011;36704;52.524;17.580;2023-01-25T14:40:09;108.68;;;38.47;;
50739;SDS011;36704;52.524;17.580;2023-01-25T14:42:57;102.38;;;35.92;;
50739;SDS011;36704;52.524;17.580;2023-01-25T14:45:44;85.15;;;32.47;;
50739;SDS011;36704;52.524;17.580;2023-01-25T14:48:32;79.38;;;29.27;;
50739;SDS011;36704;52.524;17.580;2023-01-25T14:51:27;43.95;;;19.52;;
50739;SDS011;36704;52.524;17.580;2023-01-25T14:54:18;48.30;;;18.83;;
50739;SDS011;36704;52.524;17.580;2023-01-25T14:57:15;46.70;;;21.30;;
50739;SDS011;36704;52.524;17.580;2023-01-25T15:03:30;56.83;;;23.60;;
50739;SDS011;36704;52.524;17.580;2023-01-25T15:06:19;54.50;;;23.52;;
50739;SDS011;36704;52.524;17.580;2023-01-25T15:12:26;58.75;;;25.30;;
50739;SDS011;36704;52.524;17.580;2023-01-25T15:15:20;51.65;;;22.88;;
50739;SDS011;36704;52.524;17.580;2023-01-25T15:18:37;55.25;;;24.90;;
50739;SDS011;36704;52.524;17.580;2023-01-25T15:21:38;80.15;;;29.05;;
50739;SDS011;36704;52.524;17.580;2023-01-25T15:24:25;116.15;;;36.40;;
50739;SDS011;36704;52.524;17.580;2023-01-25T15:27:14;51.20;;;22.05;;
50739;SDS011;36704;52.524;17.580;2023-01-25T15:30:02;41.65;;;19.58;;
50739;SDS011;36704;52.524;17.580;2023-01-25T15:32:48;46.00;;;19.65;;
50739;SDS011;36704;52.524;17.580;2023-01-25T15:35:35;59.13;;;24.13;;
50739;SDS011;36704;52.524;17.580;2023-01-25T15:38:21;53.28;;;23.30;;
50739;SDS011;36704;52.524;17.580;2023-01-25T15:41:09;59.22;;;24.13;;
50739;SDS011;36704;52.524;17.580;2023-01-25T15:43:57;50.10;;;22.52;;
50739;SDS011;36704;52.524;17.580;2023-01-25T15:46:47;50.67;;;23.25;;
50739;SDS011;36704;52.524;17.580;2023-01-25T15:49:35;56.85;;;22.98;;
50739;SDS011;36704;52.524;17.580;2023-01-25T15:52:24;63.25;;;25.83;;
50739;SDS011;36704;52.524;17.580;2023-01-25T15:55:12;49.78;;;21.83;;
50739;SDS011;36704;52.524;17.580;2023-01-25T15:57:59;61.70;;;26.13;;
50739;SDS011;36704;52.524;17.580;2023-01-25T16:00:47;52.05;;;24.75;;
50739;SDS011;36704;52.524;17.580;2023-01-25T16:03:38;50.20;;;22.65;;
50739;SDS011;36704;52.524;17.580;2023-01-25T16:06:37;62.13;;;29.05;;
50739;SDS011;36704;52.524;17.580;2023-01-25T16:09:27;93.93;;;41.55;;
50739;SDS011;36704;52.524;17.580;2023-01-25T16:12:15;54.10;;;25.40;;
50739;SDS011;36704;52.524;17.580;2023-01-25T16:15:02;72.03;;;33.67;;
50739;SDS011;36704;52.524;17.580;2023-01-25T16:17:51;64.53;;;27.63;;
50739;SDS011;36704;52.524;17.580;2023-01-25T16:20:38;61.30;;;25.15;;
50739;SDS011;36704;52.524;17.580;2023-01-25T16:23:26;56.95;;;25.42;;
50739;SDS011;36704;52.524;17.580;2023-01-25T16:26:20;73.20;;;32.88;;
50739;SDS011;36704;52.524;17.580;2023-01-25T16:29:09;61.33;;;25.65;;
50739;SDS011;36704;52.524;17.580;2023-01-25T16:31:57;149.85;;;48.17;;
50739;SDS011;36704;52.524;17.580;2023-01-25T16:34:43;180.85;;;56.92;;
50739;SDS011;36704;52.524;17.580;2023-01-25T16:37:30;211.35;;;66.00;;
50739;SDS011;36704;52.524;17.580;2023-01-25T16:40:21;225.60;;;75.20;;
50739;SDS011;36704;52.524;17.580;2023-01-25T16:43:09;118.75;;;43.70;;
50739;SDS011;36704;52.524;17.580;2023-01-25T16:45:56;112.82;;;40.72;;
50739;SDS011;36704;52.524;17.580;2023-01-25T16:48:44;80.03;;;31.70;;
50739;SDS011;36704;52.524;17.580;2023-01-25T16:51:32;89.60;;;34.05;;
50739;SDS011;36704;52.524;17.580;2023-01-25T16:54:19;76.65;;;33.90;;
50739;SDS011;36704;52.524;17.580;2023-01-25T16:57:08;75.57;;;32.05;;
50739;SDS011;36704;52.524;17.580;2023-01-25T17:00:07;108.28;;;50.80;;
50739;SDS011;36704;52.524;17.580;2023-01-25T17:02:55;88.07;;;38.05;;
50739;SDS011;36704;52.524;17.580;2023-01-25T17:05:44;62.95;;;27.90;;
50739;SDS011;36704;52.524;17.580;2023-01-25T17:08:31;63.40;;;27.60;;
50739;SDS011;36704;52.524;17.580;2023-01-25T17:11:18;60.80;;;26.20;;
50739;SDS011;36704;52.524;17.580;2023-01-25T17:14:07;56.33;;;25.20;;
50739;SDS011;36704;52.524;17.580;2023-01-25T17:16:57;68.70;;;29.85;;
50739;SDS011;36704;52.524;17.580;2023-01-25T17:19:47;62.95;;;27.60;;
50739;SDS011;36704;52.524;17.580;2023-01-25T17:22:35;86.47;;;35.38;;
50739;SDS011;36704;52.524;17.580;2023-01-25T17:25:22;87.05;;;34.38;;
50739;SDS011;36704;52.524;17.580;2023-01-25T17:28:10;67.38;;;29.13;;
50739;SDS011;36704;52.524;17.580;2023-01-25T17:30:57;87.85;;;34.67;;
50739;SDS011;36704;52.524;17.580;2023-01-25T17:33:45;91.55;;;37.13;;
50739;SDS011;36704;52.524;17.580;2023-01-25T17:36:32;110.57;;;42.22;;
50739;SDS011;36704;52.524;17.580;2023-01-25T17:39:21;93.95;;;38.70;;
50739;SDS011;36704;52.524;17.580;2023-01-25T17:42:08;90.80;;;36.53;;
50739;SDS011;36704;52.524;17.580;2023-01-25T17:44:58;72.78;;;31.88;;
50739;SDS011;36704;52.524;17.580;2023-01-25T17:47:49;83.15;;;32.85;;
50739;SDS011;36704;52.524;17.580;2023-01-25T17:50:36;72.32;;;29.17;;
50739;SDS011;36704;52.524;17.580;2023-01-25T17:53:23;72.55;;;30.42;;
50739;SDS011;36704;52.524;17.580;2023-01-25T17:56:10;87.85;;;35.95;;
50739;SDS011;36704;52.524;17.580;2023-01-25T17:59:00;94.68;;;40.40;;
50739;SDS011;36704;52.524;17.580;2023-01-25T18:01:49;76.18;;;34.28;;
50739;SDS011;36704;52.524;17.580;2023-01-25T18:04:36;72.15;;;28.38;;
50739;SDS011;36704;52.524;17.580;2023-01-25T18:07:22;71.20;;;29.17;;